Terminal Aerodrome Forecast
Issued by NWS Sioux Falls, SD

Home | Current Version | Previous Version | Graphics & Text | Print | Product List | Glossary On
Versions: 1 2 3 4 5 6 7 8 9 10 11 12 13 14 15 16
000
FTUS43 KFSD 181133
TAFHON
TAF
KHON 181133Z 1812/1912 VRB05KT P6SM OVC110
     FM181700 11008KT P6SM OVC080
     FM182200 14007KT 6SM -SHRA OVC050
     FM190000 04008KT 5SM SHRA OVC020
     FM190500 32012G19KT P6SM OVC010=

USA.gov is the U.S. government's official web portal to all federal, state and local government web resources and services.